Margaretville, NY (12455)

7:06 AM EDT on July 04, 2015 (GMT -0400)
barley road | | Change Station
CLOSE
Current Station
Personal Weather Station
Location: Shandaken, NY
Elevation: 2311 ft
Nearby Weather Stations

Elev 2311 ft 42.15 °N, 74.48 °W | Updated 14 minutes ago

Overcast
Overcast
58.0 °F
Feels Like 58.0 °F
N
0.0
Wind Variable Wind from West
Gusts 0.0 mph

Today
High -- | Low -- °F
--% Chance of Precip.
Yesterday
High -- | Low -- °F
Precip. -- in
5:27 AM 8:37 PM
Waning Gibbous, 93% visible
Pressure 30.00 in
Visibility 3.0 miles
Clouds Few 2600 ft
Scattered Clouds 3400 ft
Mostly Cloudy 4000 ft
Dew Point 54 °F
Humidity 87%
Rainfall 0.00 in
Snow Depth Not available.
UV 0 out of 12
Pollen 5.20 out of 12
Air Quality Not available.
Flu Activity Not available.
METAR KMSV 041055Z AUTO 00000KT 3SM FEW026 SCT034 BKN040 15/14 A3000 RMK AO1

More Conditions Fewer Conditions

Pressure 30.00 in
Visibility 3.0 miles
Clouds Few 2600 ft
Scattered Clouds 3400 ft
Mostly Cloudy 4000 ft
Dew Point 54 °F
Humidity 87%
Rainfall 0.00 in
Snow Depth Not available.
UV 0 out of 12
Pollen 5.20 out of 12
Air Quality Not available.
Flu Activity Not available.
METAR KMSV 041055Z AUTO 00000KT 3SM FEW026 SCT034 BKN040 15/14 A3000 RMK AO1

More Conditions Fewer Conditions

10-Day Weather Forecast

×

Almanac

Astronomy

Jul. 04, 2015 Rise Set
Actual Time
Civil Twilight
Nautical Twilight
Astronomical Twilight
Moon
Length of Visible Light
Length of Day
Tomorrow will be .
, % of the Moon is Illuminated

Today's Extremes

State Highs State Lows

Community

WunderPhotos

Upload Photos

1,834,939 photos uploaded!

WunderBlogs® & News

Nearby

Air Quality

  Air Quality AQ Index Pollutant
Not available.

Snow Depth

Station Depth Elevation

Earthquake Activity

City Distance Mag. Time & Date
Minimum magnitude displayed is 2.5.

Coastal Water Temperatures

Place Temperature

Stations

Nearby Weather Stations

Station Location Temp. Windchill Dew Point Humidity Wind Precip. Elev Updated Type